Motion Scan — PCNB — position and weather

sailwx.info

Track history (hours):
 
Tides and Currents Weather Stations Pressure Air Temp Water Temp Dewpoint Dewpoint Depression Visibility Wind Speed Wind Dir Waves Ship Positions

Motion Scan

Last reported at 2015-Jul-30 08:26 UTC. Time now 2015-Aug-03 06:40 UTC.
Position N 31°01' E 032°19'.

Length 116 m; draft 5.3 m.

Type: Cargo ship. MMSI: 245523000.

Date/timePositionNaut miles runAvg speedWind from/ knotsBaromVisibWave heightAir tempDewpointWater temp
2015-Jul-30 08:26N 31°01' E 032°19'9 9.8
2015-Jul-30 07:31N 31°11' E 032°18'7 7.0
2015-Jul-30 06:33N 31°17' E 032°20'3 0.9
2015-Jul-30 02:31N 31°20' E 032°19'0 0.0
2015-Jul-30 01:31N 31°20' E 032°19'0 0.0
2015-Jul-30 00:31N 31°20' E 032°19'0 0.0
2015-Jul-29 22:25N 31°20' E 032°19'0 0.1
2015-Jul-29 21:34N 31°20' E 032°18'1311.3
2015-Jul-29 20:24N 31°32' E 032°12'1113.3
2015-Jul-29 19:33N 31°40' E 032°03'1313.4
2015-Jul-29 18:33N 31°46' E 031°49'1413.9
2015-Jul-29 17:33N 31°50' E 031°33'1413.9
2015-Jul-29 16:33N 31°53' E 031°17'1413.8
2015-Jul-29 15:33N 31°57' E 031°01'1413.7
2015-Jul-29 14:33N 32°01' E 030°46'13713.7
2015-Jul-29 04:33N 32°44' E 028°12'2713.5
2015-Jul-29 02:33N 32°53' E 027°42'46813.7
2015-Jul-27 16:18N 35°20' E 018°46'2413.8
2015-Jul-27 14:32N 35°28' E 018°17'34 7.7
2015-Jul-27 10:09N 35°38' E 017°38'3513.5
2015-Jul-27 07:33N 35°49' E 016°57'8613.4
2015-Jul-27 01:06N 36°16' E 015°16'813.0
2015-Jul-27 00:31N 36°19' E 015°07'1313.3
2015-Jul-26 23:33N 36°23' E 014°52'1313.4
2015-Jul-26 22:33N 36°27' E 014°36'1313.1
2015-Jul-26 21:33N 36°31' E 014°20'1313.1
2015-Jul-26 20:33N 36°35' E 014°05'1313.2
2015-Jul-26 19:33N 36°39' E 013°49'1313.5
2015-Jul-26 18:33N 36°43' E 013°33'1413.7
2015-Jul-26 17:33N 36°47' E 013°17'1413.7
2015-Jul-26 16:33N 36°52' E 013°01'1413.6
2015-Jul-26 15:33N 36°56' E 012°45'1413.5
2015-Jul-26 14:33N 36°60' E 012°28'1313.2
2015-Jul-26 13:33N 37°04' E 012°13'1313.0
2015-Jul-26 12:33N 37°08' E 011°57'1312.8
2015-Jul-26 11:33N 37°12' E 011°42'1312.8
2015-Jul-26 10:33N 37°16' E 011°27'1913.5
2015-Jul-26 09:11N 37°23' E 011°05'3814.3
2015-Jul-26 06:33N 37°33' E 010°19'4214.0
2015-Jul-26 03:33N 37°36' E 009°26'1513.8
2015-Jul-26 02:26N 37°36' E 009°07'4413.3
2015-Jul-25 23:09N 37°32' E 008°12'17312.7
2015-Jul-25 09:34N 37°06' E 004°37'3113.4
2015-Jul-25 07:16N 37°02' E 003°59'1013.5
2015-Jul-25 06:33N 37°00' E 003°47'1513.6
2015-Jul-25 05:27N 36°58' E 003°29'1213.7
2015-Jul-25 04:33N 36°56' E 003°13'1413.8
2015-Jul-25 03:33N 36°55' E 002°56'1413.8
2015-Jul-25 02:33N 36°52' E 002°39'1413.9
2015-Jul-25 01:33N 36°50' E 002°22'1413.7
2015-Jul-25 00:30N 36°48' E 002°04'1212.9
2015-Jul-24 23:33N 36°46' E 001°49'1312.8
2015-Jul-24 22:33N 36°44' E 001°34'1313.0
2015-Jul-24 21:33N 36°42' E 001°18'1312.9
2015-Jul-24 20:33N 36°40' E 001°02'1414.1
2015-Jul-24 19:33N 36°38' E 000°44'1413.7
2015-Jul-24 18:33N 36°35' E 000°28'1413.6
2015-Jul-24 17:33N 36°33' E 000°11'1413.5
2015-Jul-24 16:33N 36°31' W 000°06'1313.5
2015-Jul-24 15:34N 36°29' W 000°22'1413.6
2015-Jul-24 14:34N 36°27' W 000°39'1413.7
2015-Jul-24 13:33N 36°25' W 000°56'1313.3
2015-Jul-24 12:34N 36°23' W 001°12'1313.4
2015-Jul-24 11:33N 36°21' W 001°29'5413.4
2015-Jul-24 07:33N 36°14' W 002°35'155 7.7
2015-Jul-23 11:15N 35°55' W 005°46'6413.8
2015-Jul-23 06:33N 36°05' W 007°04'1513.1
2015-Jul-23 05:23N 36°09' W 007°23'1113.2
2015-Jul-23 04:33N 36°12' W 007°36'1313.2
2015-Jul-23 03:33N 36°16' W 007°52'1313.5
2015-Jul-23 02:33N 36°19' W 008°08'1313.2
2015-Jul-23 01:33N 36°22' W 008°24'1313.1
2015-Jul-23 00:33N 36°26' W 008°39'1413.5
2015-Jul-22 23:33N 36°29' W 008°56'1313.4
2015-Jul-22 22:33N 36°33' W 009°11'1312.8
2015-Jul-22 21:33N 36°41' W 009°24'1313.2
2015-Jul-22 20:33N 36°52' W 009°33'1313.3
2015-Jul-22 19:33N 37°05' W 009°37'1413.8
2015-Jul-22 18:33N 37°18' W 009°41'1413.9
2015-Jul-22 17:33N 37°32' W 009°45'1413.6
2015-Jul-22 16:33N 37°45' W 009°49'1414.0
2015-Jul-22 15:33N 37°59' W 009°53'1413.9
2015-Jul-22 14:33N 38°12' W 009°57'1413.9
2015-Jul-22 13:33N 38°26' W 010°01'1413.7
2015-Jul-22 12:33N 38°39' W 010°05'1413.6
2015-Jul-22 11:33N 38°53' W 010°06'1414.1
2015-Jul-22 10:33N 39°07' W 010°05'1313.5
2015-Jul-22 09:33N 39°20' W 010°06'1313.4
2015-Jul-22 08:33N 39°34' W 010°06'1413.7
2015-Jul-22 07:33N 39°48' W 010°06'1413.8
2015-Jul-22 06:33N 40°01' W 010°06'1413.4
2015-Jul-22 05:30N 40°15' W 010°06'1413.6
2015-Jul-22 04:31N 40°29' W 010°06'26210.0
2015-Jul-21 02:26N 43°47' W 006°15'1213.2
2015-Jul-21 01:33N 43°46' W 005°59'1312.9
2015-Jul-21 00:32N 43°44' W 005°41'1313.4
2015-Jul-20 23:33N 43°42' W 005°22'1313.3
2015-Jul-20 22:32N 43°40' W 005°04'  
Track history (hours):
 
Tides and Currents Weather Stations Pressure Air Temp Water Temp Dewpoint Dewpoint Depression Visibility Wind Speed Wind Dir Waves Ship Positions

Motion Scan

Last reported at 2015-Jul-30 08:26 UTC. Time now 2015-Aug-03 06:40 UTC.
Position N 31°01' E 032°19'.

Length 116 m; draft 5.3 m.

Type: Cargo ship. MMSI: 245523000.

Date/timePositionNaut miles runAvg speedWind from/ knotsBaromVisibWave heightAir tempDewpointWater temp
2015-Jul-30 08:26N 31°01' E 032°19'9 9.8
2015-Jul-30 07:31N 31°11' E 032°18'7 7.0
2015-Jul-30 06:33N 31°17' E 032°20'3 0.9
2015-Jul-30 02:31N 31°20' E 032°19'0 0.0
2015-Jul-30 01:31N 31°20' E 032°19'0 0.0
2015-Jul-30 00:31N 31°20' E 032°19'0 0.0
2015-Jul-29 22:25N 31°20' E 032°19'0 0.1
2015-Jul-29 21:34N 31°20' E 032°18'1311.3
2015-Jul-29 20:24N 31°32' E 032°12'1113.3
2015-Jul-29 19:33N 31°40' E 032°03'1313.4
2015-Jul-29 18:33N 31°46' E 031°49'1413.9
2015-Jul-29 17:33N 31°50' E 031°33'1413.9
2015-Jul-29 16:33N 31°53' E 031°17'1413.8
2015-Jul-29 15:33N 31°57' E 031°01'1413.7
2015-Jul-29 14:33N 32°01' E 030°46'13713.7
2015-Jul-29 04:33N 32°44' E 028°12'2713.5
2015-Jul-29 02:33N 32°53' E 027°42'46813.7
2015-Jul-27 16:18N 35°20' E 018°46'2413.8
2015-Jul-27 14:32N 35°28' E 018°17'34 7.7
2015-Jul-27 10:09N 35°38' E 017°38'3513.5
2015-Jul-27 07:33N 35°49' E 016°57'8613.4
2015-Jul-27 01:06N 36°16' E 015°16'813.0
2015-Jul-27 00:31N 36°19' E 015°07'1313.3
2015-Jul-26 23:33N 36°23' E 014°52'1313.4
2015-Jul-26 22:33N 36°27' E 014°36'1313.1
2015-Jul-26 21:33N 36°31' E 014°20'1313.1
2015-Jul-26 20:33N 36°35' E 014°05'1313.2
2015-Jul-26 19:33N 36°39' E 013°49'1313.5
2015-Jul-26 18:33N 36°43' E 013°33'1413.7
2015-Jul-26 17:33N 36°47' E 013°17'1413.7
2015-Jul-26 16:33N 36°52' E 013°01'1413.6
2015-Jul-26 15:33N 36°56' E 012°45'1413.5
2015-Jul-26 14:33N 36°60' E 012°28'1313.2
2015-Jul-26 13:33N 37°04' E 012°13'1313.0
2015-Jul-26 12:33N 37°08' E 011°57'1312.8
2015-Jul-26 11:33N 37°12' E 011°42'1312.8
2015-Jul-26 10:33N 37°16' E 011°27'1913.5
2015-Jul-26 09:11N 37°23' E 011°05'3814.3
2015-Jul-26 06:33N 37°33' E 010°19'4214.0
2015-Jul-26 03:33N 37°36' E 009°26'1513.8
2015-Jul-26 02:26N 37°36' E 009°07'4413.3
2015-Jul-25 23:09N 37°32' E 008°12'17312.7
2015-Jul-25 09:34N 37°06' E 004°37'3113.4
2015-Jul-25 07:16N 37°02' E 003°59'1013.5
2015-Jul-25 06:33N 37°00' E 003°47'1513.6
2015-Jul-25 05:27N 36°58' E 003°29'1213.7
2015-Jul-25 04:33N 36°56' E 003°13'1413.8
2015-Jul-25 03:33N 36°55' E 002°56'1413.8
2015-Jul-25 02:33N 36°52' E 002°39'1413.9
2015-Jul-25 01:33N 36°50' E 002°22'1413.7
2015-Jul-25 00:30N 36°48' E 002°04'1212.9
2015-Jul-24 23:33N 36°46' E 001°49'1312.8
2015-Jul-24 22:33N 36°44' E 001°34'1313.0
2015-Jul-24 21:33N 36°42' E 001°18'1312.9
2015-Jul-24 20:33N 36°40' E 001°02'1414.1
2015-Jul-24 19:33N 36°38' E 000°44'1413.7
2015-Jul-24 18:33N 36°35' E 000°28'1413.6
2015-Jul-24 17:33N 36°33' E 000°11'1413.5
2015-Jul-24 16:33N 36°31' W 000°06'1313.5
2015-Jul-24 15:34N 36°29' W 000°22'1413.6
2015-Jul-24 14:34N 36°27' W 000°39'1413.7
2015-Jul-24 13:33N 36°25' W 000°56'1313.3
2015-Jul-24 12:34N 36°23' W 001°12'1313.4
2015-Jul-24 11:33N 36°21' W 001°29'5413.4
2015-Jul-24 07:33N 36°14' W 002°35'155 7.7
2015-Jul-23 11:15N 35°55' W 005°46'6413.8
2015-Jul-23 06:33N 36°05' W 007°04'1513.1
2015-Jul-23 05:23N 36°09' W 007°23'1113.2
2015-Jul-23 04:33N 36°12' W 007°36'1313.2
2015-Jul-23 03:33N 36°16' W 007°52'1313.5
2015-Jul-23 02:33N 36°19' W 008°08'1313.2
2015-Jul-23 01:33N 36°22' W 008°24'1313.1
2015-Jul-23 00:33N 36°26' W 008°39'1413.5
2015-Jul-22 23:33N 36°29' W 008°56'1313.4
2015-Jul-22 22:33N 36°33' W 009°11'1312.8
2015-Jul-22 21:33N 36°41' W 009°24'1313.2
2015-Jul-22 20:33N 36°52' W 009°33'1313.3
2015-Jul-22 19:33N 37°05' W 009°37'1413.8
2015-Jul-22 18:33N 37°18' W 009°41'1413.9
2015-Jul-22 17:33N 37°32' W 009°45'1413.6
2015-Jul-22 16:33N 37°45' W 009°49'1414.0
2015-Jul-22 15:33N 37°59' W 009°53'1413.9
2015-Jul-22 14:33N 38°12' W 009°57'1413.9
2015-Jul-22 13:33N 38°26' W 010°01'1413.7
2015-Jul-22 12:33N 38°39' W 010°05'1413.6
2015-Jul-22 11:33N 38°53' W 010°06'1414.1
2015-Jul-22 10:33N 39°07' W 010°05'1313.5
2015-Jul-22 09:33N 39°20' W 010°06'1313.4
2015-Jul-22 08:33N 39°34' W 010°06'1413.7
2015-Jul-22 07:33N 39°48' W 010°06'1413.8
2015-Jul-22 06:33N 40°01' W 010°06'1413.4
2015-Jul-22 05:30N 40°15' W 010°06'1413.6
2015-Jul-22 04:31N 40°29' W 010°06'26210.0
2015-Jul-21 02:26N 43°47' W 006°15'1213.2
2015-Jul-21 01:33N 43°46' W 005°59'1312.9
2015-Jul-21 00:32N 43°44' W 005°41'1313.4
2015-Jul-20 23:33N 43°42' W 005°22'1313.3
2015-Jul-20 22:32N 43°40' W 005°04'  

Dump ship's entire track history